Shirley P. Settoon — WDF9252 — position and weather

sailwx.info

Track history (hours):
 
Tides and Currents Weather Stations Pressure Air Temp Water Temp Dewpoint Dewpoint Depression Visibility Wind Speed Wind Dir Waves Ship Positions

Shirley P. Settoon

Owner: Settoon Towing, LLC, Houma, LA. More information available from US FCC via Universal Licensing System and Coast Guard Vessel Documentation Center.

Last reported at 2016-Oct-01 15:33 UTC. Time now 2016-Oct-01 17:13 UTC.
Position N 30°08' W 093°20'.

Length 32 m; draft 10 m.

Type: Towing. MMSI: 367503240.

Date/timePositionNaut miles runAvg speedWind from/ knotsBaromVisibWave heightAir tempDewpointWater temp
2016-Oct-01 15:33N 30°08' W 093°20'3 2.7
2016-Oct-01 14:32N 30°11' W 093°19'0 0.1
2016-Oct-01 13:33N 30°11' W 093°19'0 0.0
2016-Oct-01 04:33N 30°11' W 093°19'0 0.0
2016-Oct-01 03:33N 30°11' W 093°19'0 0.0
2016-Oct-01 00:33N 30°11' W 093°19'0 0.0
2016-Sep-30 22:33N 30°11' W 093°19'0 0.0
2016-Sep-30 20:33N 30°11' W 093°19'0 0.0
2016-Sep-30 17:33N 30°11' W 093°19'0 0.0
2016-Sep-30 16:33N 30°11' W 093°19'0 0.0
2016-Sep-30 14:33N 30°11' W 093°19'0 0.0
2016-Sep-30 13:33N 30°11' W 093°19'0 0.0
2016-Sep-30 03:33N 30°11' W 093°19'0 0.2
2016-Sep-30 02:33N 30°11' W 093°19'3 1.0
2016-Sep-29 23:33N 30°08' W 093°20'8 4.1
2016-Sep-29 21:33N 30°15' W 093°15'2 2.2
2016-Sep-29 20:33N 30°15' W 093°12'2 2.2
2016-Sep-29 19:34N 30°15' W 093°15'11 3.6
2016-Sep-29 16:33N 30°05' W 093°20'0 0.0
2016-Sep-29 15:33N 30°05' W 093°20'0 0.0
2016-Sep-29 14:33N 30°05' W 093°20'0 0.4
2016-Sep-29 13:33N 30°05' W 093°20'0 0.0
2016-Sep-29 08:33N 30°05' W 093°20'0 0.0
2016-Sep-29 07:33N 30°05' W 093°20'7 1.0
2016-Sep-29 00:33N 30°04' W 093°28'22 1.8
2016-Sep-28 12:18N 29°59' W 093°53'0 0.0
2016-Sep-28 08:33N 29°59' W 093°53'0 0.0
2016-Sep-28 03:33N 29°59' W 093°53'61 2.3
2016-Sep-27 00:33N 29°42' W 095°00'  
Track history (hours):
 
Tides and Currents Weather Stations Pressure Air Temp Water Temp Dewpoint Dewpoint Depression Visibility Wind Speed Wind Dir Waves Ship Positions

Shirley P. Settoon

Owner: Settoon Towing, LLC, Houma, LA. More information available from US FCC via Universal Licensing System and Coast Guard Vessel Documentation Center.

Last reported at 2016-Oct-01 15:33 UTC. Time now 2016-Oct-01 17:13 UTC.
Position N 30°08' W 093°20'.

Length 32 m; draft 10 m.

Type: Towing. MMSI: 367503240.

Date/timePositionNaut miles runAvg speedWind from/ knotsBaromVisibWave heightAir tempDewpointWater temp
2016-Oct-01 15:33N 30°08' W 093°20'3 2.7
2016-Oct-01 14:32N 30°11' W 093°19'0 0.1
2016-Oct-01 13:33N 30°11' W 093°19'0 0.0
2016-Oct-01 04:33N 30°11' W 093°19'0 0.0
2016-Oct-01 03:33N 30°11' W 093°19'0 0.0
2016-Oct-01 00:33N 30°11' W 093°19'0 0.0
2016-Sep-30 22:33N 30°11' W 093°19'0 0.0
2016-Sep-30 20:33N 30°11' W 093°19'0 0.0
2016-Sep-30 17:33N 30°11' W 093°19'0 0.0
2016-Sep-30 16:33N 30°11' W 093°19'0 0.0
2016-Sep-30 14:33N 30°11' W 093°19'0 0.0
2016-Sep-30 13:33N 30°11' W 093°19'0 0.0
2016-Sep-30 03:33N 30°11' W 093°19'0 0.2
2016-Sep-30 02:33N 30°11' W 093°19'3 1.0
2016-Sep-29 23:33N 30°08' W 093°20'8 4.1
2016-Sep-29 21:33N 30°15' W 093°15'2 2.2
2016-Sep-29 20:33N 30°15' W 093°12'2 2.2
2016-Sep-29 19:34N 30°15' W 093°15'11 3.6
2016-Sep-29 16:33N 30°05' W 093°20'0 0.0
2016-Sep-29 15:33N 30°05' W 093°20'0 0.0
2016-Sep-29 14:33N 30°05' W 093°20'0 0.4
2016-Sep-29 13:33N 30°05' W 093°20'0 0.0
2016-Sep-29 08:33N 30°05' W 093°20'0 0.0
2016-Sep-29 07:33N 30°05' W 093°20'7 1.0
2016-Sep-29 00:33N 30°04' W 093°28'22 1.8
2016-Sep-28 12:18N 29°59' W 093°53'0 0.0
2016-Sep-28 08:33N 29°59' W 093°53'0 0.0
2016-Sep-28 03:33N 29°59' W 093°53'61 2.3
2016-Sep-27 00:33N 29°42' W 095°00'  

Dump ship's entire track history